Time;durP1;ratioP1;P1;durP2;ratioP2;P2;SDS_P1;SDS_P2;PMS_P1;PMS_P2;Temp;Humidity;BMP_temperature;BMP_pressure;BME280_temperature;BME280_humidity;BME280_pressure;Samples;Min_cycle;Max_cycle;Signal;HPM_P1;HPM_P2
2023/06/05 00:00:14;;;;;;;7.75;3.97;;;;;;;;;;6323529;22;20006;-94
2023/06/05 00:02:40;;;;;;;8.80;4.53;;;;;;;;;;6325828;22;20070;-95
2023/06/05 00:05:08;;;;;;;8.65;4.30;;;;;;;;;;6327258;22;20013;-96
2023/06/05 00:07:41;;;;;;;8.93;4.30;;;;;;;;;;6328674;22;20010;-95
2023/06/05 00:10:08;;;;;;;11.70;4.53;;;;;;;;;;6349836;22;20085;-96
2023/06/05 00:12:34;;;;;;;8.77;4.30;;;;;;;;;;6321952;22;20379;-95
2023/06/05 00:15:09;;;;;;;6.43;4.25;;;;;;;;;;6322679;22;20007;-95
2023/06/05 00:17:36;;;;;;;9.90;4.57;;;;;;;;;;6326179;22;20022;-95
2023/06/05 00:20:03;;;;;;;8.73;4.45;;;;;;;;;;6324043;22;20010;-95
2023/06/05 00:22:39;;;;;;;9.50;4.35;;;;;;;;;;6349931;22;20391;-96
2023/06/05 00:25:07;;;;;;;9.48;5.53;;;;;;;;;;6352718;22;20006;-96
2023/06/05 00:27:33;;;;;;;10.00;5.00;;;;;;;;;;6350880;22;20010;-96
2023/06/05 00:29:59;;;;;;;8.70;5.30;;;;;;;;;;6323258;22;20052;-95
2023/06/05 00:32:25;;;;;;;9.85;5.15;;;;;;;;;;6348012;22;19994;-95
2023/06/05 00:34:52;;;;;;;7.82;4.68;;;;;;;;;;6322451;22;20348;-96
2023/06/05 00:37:19;;;;;;;9.82;4.63;;;;;;;;;;6322997;22;20089;-96
2023/06/05 00:39:46;;;;;;;10.85;4.55;;;;;;;;;;6321986;22;20014;-95
2023/06/05 00:42:13;;;;;;;12.57;4.93;;;;;;;;;;6322835;22;20014;-95
2023/06/05 00:44:40;;;;;;;12.65;4.43;;;;;;;;;;6322574;22;20446;-95
2023/06/05 00:47:07;;;;;;;7.78;5.03;;;;;;;;;;6322063;22;20006;-96
2023/06/05 00:49:33;;;;;;;12.85;4.32;;;;;;;;;;6321619;22;20018;-96
2023/06/05 00:54:44;;;;;;;10.23;4.65;;;;;;;;;;6349953;22;20066;-95
2023/06/05 00:57:12;;;;;;;8.45;4.63;;;;;;;;;;6347908;22;20011;-96
2023/06/05 00:59:40;;;;;;;10.27;4.47;;;;;;;;;;6320141;22;20308;-95
2023/06/05 01:02:28;;;;;;;11.40;4.18;;;;;;;;;;6346395;22;20009;-95
2023/06/05 01:04:56;;;;;;;15.27;4.97;;;;;;;;;;6350478;22;20018;-95
2023/06/05 01:07:22;;;;;;;12.27;4.88;;;;;;;;;;6319674;22;20006;-96
2023/06/05 01:10:03;;;;;;;9.48;4.57;;;;;;;;;;6318731;22;20018;-96
2023/06/05 01:12:48;;;;;;;11.55;4.55;;;;;;;;;;6318966;22;20068;-96
2023/06/05 01:15:18;;;;;;;7.70;4.32;;;;;;;;;;6344620;22;20007;-95
2023/06/05 01:17:47;;;;;;;7.55;4.40;;;;;;;;;;6319390;22;20046;-95
2023/06/05 01:20:13;;;;;;;7.93;4.57;;;;;;;;;;6340420;22;20555;-96
2023/06/05 01:22:40;;;;;;;10.55;4.78;;;;;;;;;;6341069;22;20086;-96
2023/06/05 01:25:07;;;;;;;9.43;4.90;;;;;;;;;;6342954;22;20013;-95
2023/06/05 01:27:36;;;;;;;10.27;4.95;;;;;;;;;;6343550;22;20007;-94
2023/06/05 01:30:06;;;;;;;8.35;4.63;;;;;;;;;;6343169;22;20007;-95
2023/06/05 01:32:41;;;;;;;8.20;5.00;;;;;;;;;;6344448;22;20075;-95
2023/06/05 01:35:16;;;;;;;13.57;5.18;;;;;;;;;;6343978;22;20106;-96
2023/06/05 01:37:46;;;;;;;11.20;5.57;;;;;;;;;;6344464;22;20007;-96
2023/06/05 01:40:23;;;;;;;9.93;5.45;;;;;;;;;;6343201;22;20015;-95
2023/06/05 01:43:12;;;;;;;11.82;5.57;;;;;;;;;;6343944;22;20205;-95
2023/06/05 01:45:40;;;;;;;13.95;4.63;;;;;;;;;;6312788;22;20029;-96
2023/06/05 01:48:10;;;;;;;10.40;5.43;;;;;;;;;;6346064;22;20006;-95
2023/06/05 01:50:55;;;;;;;11.43;5.88;;;;;;;;;;6351004;22;20002;-96
2023/06/05 01:53:22;;;;;;;10.30;6.35;;;;;;;;;;6351045;22;19995;-96
2023/06/05 01:55:57;;;;;;;13.48;5.55;;;;;;;;;;6327235;22;20007;-96
2023/06/05 01:58:23;;;;;;;11.10;5.68;;;;;;;;;;6356092;22;20180;-96
2023/06/05 02:00:50;;;;;;;10.23;6.00;;;;;;;;;;6355895;22;20003;-96
2023/06/05 02:03:26;;;;;;;9.70;5.68;;;;;;;;;;6329744;22;20026;-96
2023/06/05 02:05:53;;;;;;;17.83;6.22;;;;;;;;;;6331635;22;20513;-95
2023/06/05 02:08:24;;;;;;;10.35;5.43;;;;;;;;;;6331855;22;20018;-96
2023/06/05 02:10:55;;;;;;;12.05;6.03;;;;;;;;;;6328652;22;20027;-96
2023/06/05 02:13:23;;;;;;;11.48;5.18;;;;;;;;;;6326669;22;20003;-96
2023/06/05 02:15:55;;;;;;;8.70;5.18;;;;;;;;;;6325166;22;20003;-96
2023/06/05 02:18:25;;;;;;;10.57;5.38;;;;;;;;;;6352190;22;20022;-95
2023/06/05 02:20:58;;;;;;;9.77;5.03;;;;;;;;;;6350503;22;20068;-96
2023/06/05 02:23:24;;;;;;;10.10;5.15;;;;;;;;;;6349172;22;20014;-96
2023/06/05 02:25:52;;;;;;;7.97;5.07;;;;;;;;;;6348505;22;20121;-96
2023/06/05 02:28:21;;;;;;;9.40;5.20;;;;;;;;;;6322249;22;20010;-95
2023/06/05 02:30:47;;;;;;;6.30;4.65;;;;;;;;;;6322994;22;20006;-96
2023/06/05 02:33:17;;;;;;;8.77;5.10;;;;;;;;;;6347259;22;20015;-96
2023/06/05 02:35:47;;;;;;;9.90;4.75;;;;;;;;;;6348203;22;20006;-96
2023/06/05 02:38:14;;;;;;;11.55;4.88;;;;;;;;;;6348737;22;20017;-95
2023/06/05 02:40:40;;;;;;;8.02;4.68;;;;;;;;;;6322284;22;20086;-96
2023/06/05 02:43:08;;;;;;;8.00;4.47;;;;;;;;;;6322892;22;20014;-96
2023/06/05 02:45:34;;;;;;;10.65;4.72;;;;;;;;;;6350413;22;20017;-95
2023/06/05 02:48:01;;;;;;;13.02;4.75;;;;;;;;;;6323986;22;20034;-96
2023/06/05 02:50:27;;;;;;;11.48;5.00;;;;;;;;;;6324270;22;20017;-96
2023/06/05 02:52:53;;;;;;;9.90;4.78;;;;;;;;;;6350947;22;19998;-95
2023/06/05 02:55:29;;;;;;;8.70;5.15;;;;;;;;;;6352789;22;20002;-96
2023/06/05 02:57:57;;;;;;;7.75;4.75;;;;;;;;;;6326061;22;20006;-96
2023/06/05 03:00:25;;;;;;;10.32;5.03;;;;;;;;;;6352706;22;20454;-96
2023/06/05 03:02:51;;;;;;;8.48;4.93;;;;;;;;;;6329357;22;20033;-96
2023/06/05 03:05:24;;;;;;;11.07;4.18;;;;;;;;;;6329987;22;20011;-94
2023/06/05 03:07:53;;;;;;;9.50;4.93;;;;;;;;;;6337806;22;20002;-96
2023/06/05 03:10:20;;;;;;;7.75;4.35;;;;;;;;;;6340326;22;20014;-95
2023/06/05 03:12:46;;;;;;;8.88;4.50;;;;;;;;;;6366637;22;19999;-96
2023/06/05 03:15:16;;;;;;;16.05;5.03;;;;;;;;;;6364574;22;20330;-96
2023/06/05 03:17:50;;;;;;;6.88;4.20;;;;;;;;;;6335464;22;20401;-96
2023/06/05 03:20:25;;;;;;;8.52;4.75;;;;;;;;;;6331935;22;20038;-96
2023/06/05 03:22:51;;;;;;;7.30;4.32;;;;;;;;;;6323514;22;20025;-96
2023/06/05 03:25:21;;;;;;;8.77;3.85;;;;;;;;;;6346525;22;19999;-96
2023/06/05 03:27:51;;;;;;;9.40;4.57;;;;;;;;;;6344340;22;20018;-96
2023/06/05 03:30:20;;;;;;;8.20;4.35;;;;;;;;;;6343577;22;19999;-96
2023/06/05 03:32:48;;;;;;;7.38;4.35;;;;;;;;;;6342273;22;20007;-95
2023/06/05 03:35:14;;;;;;;8.73;4.38;;;;;;;;;;6316423;22;20010;-96
2023/06/05 03:37:40;;;;;;;8.15;4.50;;;;;;;;;;6317258;22;20022;-96
2023/06/05 03:40:10;;;;;;;9.00;4.03;;;;;;;;;;6317067;22;20011;-96
2023/06/05 03:42:36;;;;;;;9.10;3.88;;;;;;;;;;6316740;22;20094;-95
2023/06/05 03:45:03;;;;;;;8.02;4.10;;;;;;;;;;6316383;22;20007;-95
2023/06/05 03:47:29;;;;;;;8.15;4.30;;;;;;;;;;6315699;22;20109;-95
2023/06/05 03:49:56;;;;;;;7.55;4.18;;;;;;;;;;6343084;22;20030;-96
2023/06/05 03:52:43;;;;;;;8.75;4.28;;;;;;;;;;6315188;22;20009;-96
2023/06/05 03:55:09;;;;;;;;;;;;;;;;;;6342649;22;20014;-95
2023/06/05 03:57:42;;;;;;;7.68;4.00;;;;;;;;;;6340939;22;19903;-96
2023/06/05 04:00:09;;;;;;;8.85;4.63;;;;;;;;;;6340417;22;20465;-95
2023/06/05 04:02:36;;;;;;;6.50;3.78;;;;;;;;;;6314431;22;20035;-96
2023/06/05 04:05:03;;;;;;;14.32;5.18;;;;;;;;;;6314114;22;20011;-96
2023/06/05 04:07:30;;;;;;;5.20;3.95;;;;;;;;;;6314429;22;20068;-96
2023/06/05 04:10:03;;;;;;;8.60;4.07;;;;;;;;;;6340300;22;20484;-95
2023/06/05 04:12:29;;;;;;;8.77;4.53;;;;;;;;;;6339966;22;20011;-95
2023/06/05 04:14:55;;;;;;;7.68;4.32;;;;;;;;;;6340819;22;20014;-95
2023/06/05 04:17:24;;;;;;;9.52;4.03;;;;;;;;;;6315668;22;20063;-95
2023/06/05 04:19:51;;;;;;;6.80;3.92;;;;;;;;;;6346275;22;20128;-96
2023/06/05 04:22:20;;;;;;;7.85;4.18;;;;;;;;;;6320604;22;20010;-95
2023/06/05 04:24:46;;;;;;;10.10;4.85;;;;;;;;;;6345540;22;20010;-96
2023/06/05 04:27:13;;;;;;;6.65;3.88;;;;;;;;;;6319701;22;20010;-96
2023/06/05 04:29:39;;;;;;;8.23;4.50;;;;;;;;;;6320161;22;20036;-96
2023/06/05 04:32:07;;;;;;;7.25;3.47;;;;;;;;;;6347234;22;20003;-96
2023/06/05 04:34:33;;;;;;;6.47;3.83;;;;;;;;;;6321279;22;20089;-96
2023/06/05 04:36:59;;;;;;;6.68;3.72;;;;;;;;;;6321457;22;20006;-96
2023/06/05 04:39:29;;;;;;;5.97;3.50;;;;;;;;;;6320907;22;20550;-96
2023/06/05 04:41:55;;;;;;;10.88;3.80;;;;;;;;;;6320837;22;20014;-96
2023/06/05 04:44:22;;;;;;;6.05;3.72;;;;;;;;;;6347508;22;20018;-96
2023/06/05 04:46:48;;;;;;;6.07;3.80;;;;;;;;;;6346160;22;20084;-96
2023/06/05 04:49:26;;;;;;;5.30;3.35;;;;;;;;;;6319795;22;20458;-95
2023/06/05 04:51:53;;;;;;;6.80;2.90;;;;;;;;;;6346365;22;20002;-96
2023/06/05 04:54:22;;;;;;;7.18;3.03;;;;;;;;;;6319783;22;20007;-95
2023/06/05 04:56:49;;;;;;;7.30;3.08;;;;;;;;;;6320487;22;20408;-96
2023/06/05 04:59:15;;;;;;;7.20;3.60;;;;;;;;;;6322611;22;20143;-96
2023/06/05 05:01:43;;;;;;;5.90;2.58;;;;;;;;;;6322640;22;20013;-95
2023/06/05 05:04:15;;;;;;;6.30;2.97;;;;;;;;;;6351458;22;20006;-96
2023/06/05 05:06:47;;;;;;;5.18;2.78;;;;;;;;;;6350108;22;20463;-95
2023/06/05 05:09:19;;;;;;;8.38;3.67;;;;;;;;;;6325992;22;20010;-95
2023/06/05 05:11:45;;;;;;;6.97;3.13;;;;;;;;;;6327936;22;20006;-96
2023/06/05 05:14:11;;;;;;;6.05;2.70;;;;;;;;;;6328638;22;20010;-96
2023/06/05 05:16:42;;;;;;;3.72;2.65;;;;;;;;;;6329632;22;20017;-96
2023/06/05 05:19:12;;;;;;;5.20;3.00;;;;;;;;;;6327970;22;20125;-96
2023/06/05 05:21:40;;;;;;;5.28;3.17;;;;;;;;;;6325248;22;20007;-96
2023/06/05 05:24:12;;;;;;;6.53;3.22;;;;;;;;;;6325926;22;20013;-96
2023/06/05 05:26:41;;;;;;;4.70;2.17;;;;;;;;;;6314550;22;20010;-96
2023/06/05 05:29:08;;;;;;;5.30;2.85;;;;;;;;;;6358111;22;20290;-96
2023/06/05 05:31:34;;;;;;;3.40;2.67;;;;;;;;;;6356399;22;20006;-96
2023/06/05 05:34:01;;;;;;;5.03;2.83;;;;;;;;;;6355992;22;19998;-96
2023/06/05 05:37:30;;;;;;;6.22;2.42;;;;;;;;;;6353229;22;20002;-96
2023/06/05 05:40:20;;;;;;;4.18;2.45;;;;;;;;;;6326338;22;20006;-96
2023/06/05 05:42:56;;;;;;;2.83;2.10;;;;;;;;;;6385287;22;20010;-95
2023/06/05 05:45:38;;;;;;;2.60;2.00;;;;;;;;;;6358377;22;20017;-96
2023/06/05 05:48:26;;;;;;;4.30;2.85;;;;;;;;;;6355583;22;20075;-96
2023/06/05 05:50:52;;;;;;;;;;;;;;;;;;6384774;22;20056;-96
2023/06/05 05:53:20;;;;;;;6.20;2.58;;;;;;;;;;6348503;22;20277;-95
2023/06/05 05:55:49;;;;;;;2.70;2.10;;;;;;;;;;6321719;22;20081;-96
2023/06/05 05:58:18;;;;;;;2.85;2.00;;;;;;;;;;6346798;22;20051;-96
2023/06/05 06:00:48;;;;;;;4.00;1.98;;;;;;;;;;6346733;22;20006;-95
2023/06/05 06:03:14;;;;;;;3.42;2.35;;;;;;;;;;6322851;22;20018;-94
2023/06/05 06:05:41;;;;;;;3.28;2.20;;;;;;;;;;6346866;22;20011;-94
2023/06/05 06:08:07;;;;;;;3.50;2.03;;;;;;;;;;6320359;22;20006;-93
2023/06/05 06:10:36;;;;;;;4.55;2.10;;;;;;;;;;6323865;22;20013;-94
2023/06/05 06:13:12;;;;;;;4.13;2.28;;;;;;;;;;6324276;22;20360;-94
2023/06/05 06:16:00;;;;;;;;;;;;;;;;;;6354567;22;20009;-94
2023/06/05 06:18:26;;;;;;;4.28;2.15;;;;;;;;;;6375122;22;19905;-93
2023/06/05 06:21:01;;;;;;;3.53;2.22;;;;;;;;;;6314369;22;20359;-93
2023/06/05 06:23:42;;;;;;;4.18;2.20;;;;;;;;;;6327285;22;20433;-94
2023/06/05 06:26:14;;;;;;;4.32;2.22;;;;;;;;;;6290592;22;20233;-93
2023/06/05 06:28:41;;;;;;;5.78;3.03;;;;;;;;;;6316344;22;20015;-94
2023/06/05 06:31:08;;;;;;;3.25;1.65;;;;;;;;;;6314231;22;20002;-95
2023/06/05 06:33:36;;;;;;;3.25;2.00;;;;;;;;;;6318327;22;20003;-94
2023/06/05 06:36:12;;;;;;;1.88;1.58;;;;;;;;;;6292228;22;20003;-94
2023/06/05 06:38:38;;;;;;;;;;;;;;;;;;6319120;22;20033;-93
2023/06/05 06:41:04;;;;;;;3.72;1.80;;;;;;;;;;6317310;22;19898;-95
2023/06/05 06:43:30;;;;;;;4.97;2.20;;;;;;;;;;6296655;22;20010;-94
2023/06/05 06:45:57;;;;;;;4.85;2.10;;;;;;;;;;6297077;22;20405;-95
2023/06/05 06:48:24;;;;;;;3.55;2.10;;;;;;;;;;6302356;22;20022;-95
2023/06/05 06:50:50;;;;;;;3.85;1.90;;;;;;;;;;6306040;22;19983;-95
2023/06/05 06:53:18;;;;;;;2.92;2.08;;;;;;;;;;6332609;22;20003;-95
2023/06/05 06:55:44;;;;;;;6.85;2.33;;;;;;;;;;6306971;22;20003;-95
2023/06/05 06:58:11;;;;;;;2.58;1.85;;;;;;;;;;6332809;22;19999;-94
2023/06/05 07:00:37;;;;;;;4.07;2.20;;;;;;;;;;6305326;22;20030;-93
2023/06/05 07:03:03;;;;;;;3.35;2.00;;;;;;;;;;6300663;22;20076;-95
2023/06/05 07:05:29;;;;;;;3.90;1.90;;;;;;;;;;6299377;22;20058;-93
2023/06/05 07:08:00;;;;;;;3.75;2.03;;;;;;;;;;6323079;22;20019;-94
2023/06/05 07:10:28;;;;;;;4.07;1.95;;;;;;;;;;6292394;22;20006;-94
2023/06/05 07:12:54;;;;;;;2.20;2.00;;;;;;;;;;6292143;22;20037;-96
2023/06/05 07:15:20;;;;;;;5.85;2.40;;;;;;;;;;6290520;22;20064;-94
2023/06/05 07:17:53;;;;;;;3.78;2.20;;;;;;;;;;6317108;22;20090;-95
2023/06/05 07:20:29;;;;;;;4.60;1.90;;;;;;;;;;6332865;22;20015;-94
2023/06/05 07:23:02;;;;;;;3.13;2.17;;;;;;;;;;6325297;22;20055;-94
2023/06/05 07:25:29;;;;;;;3.03;2.05;;;;;;;;;;6352400;22;20079;-95
2023/06/05 07:27:55;;;;;;;2.70;2.00;;;;;;;;;;6327672;22;20015;-95
2023/06/05 07:30:28;;;;;;;2.45;1.90;;;;;;;;;;6326836;22;20056;-94
2023/06/05 07:32:55;;;;;;;3.58;2.22;;;;;;;;;;6351511;22;20021;-94
2023/06/05 07:35:23;;;;;;;2.25;1.50;;;;;;;;;;6323423;22;20007;-95
2023/06/05 07:37:49;;;;;;;4.45;2.25;;;;;;;;;;6347968;22;20022;-96
2023/06/05 07:40:20;;;;;;;2.83;1.90;;;;;;;;;;6348337;22;20002;-94
2023/06/05 07:42:47;;;;;;;3.65;1.95;;;;;;;;;;6348763;22;20006;-95
2023/06/05 07:45:17;;;;;;;5.45;2.72;;;;;;;;;;6375990;22;20368;-95
2023/06/05 07:47:43;;;;;;;3.65;1.90;;;;;;;;;;6318271;22;20010;-94
2023/06/05 07:50:10;;;;;;;4.78;2.17;;;;;;;;;;6344807;22;20010;-95
2023/06/05 07:52:45;;;;;;;5.72;3.80;;;;;;;;;;6342446;22;19995;-94
2023/06/05 07:55:12;;;;;;;2.83;2.10;;;;;;;;;;6317078;22;20389;-95
2023/06/05 07:57:38;;;;;;;3.55;2.40;;;;;;;;;;6316629;22;20010;-94
2023/06/05 08:00:10;;;;;;;3.15;2.50;;;;;;;;;;6341254;22;20017;-95
2023/06/05 08:02:38;;;;;;;3.75;2.28;;;;;;;;;;6342672;22;20009;-94
2023/06/05 08:05:14;;;;;;;3.40;2.72;;;;;;;;;;6318060;22;20025;-94
2023/06/05 08:07:41;;;;;;;6.07;2.17;;;;;;;;;;6320536;22;20065;-94
2023/06/05 08:10:08;;;;;;;3.05;2.10;;;;;;;;;;6317672;22;20007;-94
2023/06/05 08:12:37;;;;;;;3.83;2.42;;;;;;;;;;6342628;22;20006;-94
2023/06/05 08:15:03;;;;;;;3.13;2.03;;;;;;;;;;6342795;22;20089;-95
2023/06/05 08:17:34;;;;;;;4.22;2.38;;;;;;;;;;6317840;22;20013;-94
2023/06/05 08:20:07;;;;;;;3.20;1.85;;;;;;;;;;6317696;22;20029;-94
2023/06/05 08:22:42;;;;;;;7.72;2.58;;;;;;;;;;6282225;22;20631;-95
2023/06/05 08:25:12;;;;;;;4.30;1.92;;;;;;;;;;6311674;22;20068;-95
2023/06/05 08:27:38;;;;;;;5.70;2.25;;;;;;;;;;6312037;22;20063;-95
2023/06/05 08:30:14;;;;;;;6.93;2.25;;;;;;;;;;6311016;22;20010;-94
2023/06/05 08:32:48;;;;;;;4.45;2.13;;;;;;;;;;6311659;22;20435;-94
2023/06/05 08:35:24;;;;;;;3.22;2.45;;;;;;;;;;6312673;22;20018;-95
2023/06/05 08:37:50;;;;;;;6.18;2.63;;;;;;;;;;6311606;22;20006;-95
2023/06/05 08:40:19;;;;;;;3.00;2.70;;;;;;;;;;6312400;22;20026;-94
2023/06/05 08:42:45;;;;;;;5.65;2.17;;;;;;;;;;6312508;22;20455;-95
2023/06/05 08:45:24;;;;;;;5.68;2.40;;;;;;;;;;6312687;22;20007;-95
2023/06/05 08:48:20;;;;;;;6.97;2.50;;;;;;;;;;6311850;22;20408;-95
2023/06/05 08:50:57;;;;;;;4.07;2.30;;;;;;;;;;6310961;22;20007;-96
2023/06/05 08:53:29;;;;;;;4.05;2.38;;;;;;;;;;6311508;22;20003;-96
2023/06/05 08:55:56;;;;;;;3.10;2.28;;;;;;;;;;6310273;22;20009;-95
2023/06/05 08:58:22;;;;;;;2.72;2.17;;;;;;;;;;6312563;22;20413;-94
2023/06/05 09:00:50;;;;;;;4.72;2.55;;;;;;;;;;6311373;22;20432;-96
2023/06/05 09:03:20;;;;;;;3.40;2.33;;;;;;;;;;6311305;22;20006;-96
2023/06/05 09:06:25;;;;;;;3.17;2.75;;;;;;;;;;6313650;22;20356;-95
2023/06/05 09:08:52;;;;;;;3.10;2.30;;;;;;;;;;6257377;22;20398;-95
2023/06/05 09:11:50;;;;;;;4.65;2.60;;;;;;;;;;6310861;22;20072;-95
2023/06/05 09:14:35;;;;;;;5.53;2.40;;;;;;;;;;6336899;22;20015;-95
2023/06/05 09:17:02;;;;;;;3.30;2.75;;;;;;;;;;6304432;22;20011;-96
2023/06/05 09:19:58;;;;;;;4.28;2.38;;;;;;;;;;6309099;22;20494;-96
2023/06/05 09:22:34;;;;;;;3.05;2.63;;;;;;;;;;6276610;22;20019;-96
2023/06/05 09:25:09;;;;;;;3.75;2.75;;;;;;;;;;6310792;22;20014;-96
2023/06/05 09:27:39;;;;;;;;;;;;;;;;;;6289087;22;20094;-96
2023/06/05 09:30:09;;;;;;;4.50;2.22;;;;;;;;;;6312359;22;19910;-96
2023/06/05 09:32:38;;;;;;;3.63;1.98;;;;;;;;;;6312327;22;20007;-96
2023/06/05 09:37:51;;;;;;;3.30;2.35;;;;;;;;;;6314647;22;20033;-95
2023/06/05 09:40:36;;;;;;;2.88;2.28;;;;;;;;;;6310585;22;20003;-95
2023/06/05 09:43:13;;;;;;;3.43;2.47;;;;;;;;;;6310881;22;20349;-96
2023/06/05 09:45:43;;;;;;;4.50;2.10;;;;;;;;;;6312976;22;20015;-96
2023/06/05 09:48:18;;;;;;;2.33;1.90;;;;;;;;;;6312585;22;20485;-95
2023/06/05 09:51:23;;;;;;;3.42;2.35;;;;;;;;;;6310898;22;20006;-95
2023/06/05 09:54:05;;;;;;;4.55;2.58;;;;;;;;;;6290616;22;20027;-96
2023/06/05 09:56:33;;;;;;;3.08;1.90;;;;;;;;;;6286450;22;20318;-95
2023/06/05 09:59:25;;;;;;;4.35;2.72;;;;;;;;;;6312053;22;20011;-95
2023/06/05 10:01:54;;;;;;;4.95;2.45;;;;;;;;;;6311365;22;20007;-96
2023/06/05 10:04:27;;;;;;;4.00;2.25;;;;;;;;;;6310831;22;20092;-96
2023/06/05 10:06:55;;;;;;;4.25;2.30;;;;;;;;;;6312367;22;20030;-95
2023/06/05 10:09:21;;;;;;;4.47;2.10;;;;;;;;;;6313567;22;20391;-96
2023/06/05 10:11:49;;;;;;;2.95;2.25;;;;;;;;;;6312133;22;20003;-96
2023/06/05 10:14:22;;;;;;;2.67;2.30;;;;;;;;;;6314010;22;19999;-96
2023/06/05 10:16:52;;;;;;;2.72;1.60;;;;;;;;;;6314986;22;20349;-96
2023/06/05 10:19:20;;;;;;;2.38;1.90;;;;;;;;;;6314630;22;20011;-94
2023/06/05 10:21:56;;;;;;;5.75;2.60;;;;;;;;;;6331056;22;20038;-96
2023/06/05 10:27:30;;;;;;;1.75;1.63;;;;;;;;;;6367174;22;20062;-95
2023/06/05 10:30:06;;;;;;;4.50;1.88;;;;;;;;;;6346817;22;20022;-96
2023/06/05 10:32:40;;;;;;;1.95;1.70;;;;;;;;;;6346866;22;20025;-95
2023/06/05 10:35:33;;;;;;;3.20;2.13;;;;;;;;;;6346403;22;20006;-96
2023/06/05 10:38:06;;;;;;;12.05;3.05;;;;;;;;;;6347161;22;20066;-95
2023/06/05 10:40:36;;;;;;;3.17;2.08;;;;;;;;;;6346905;22;20010;-95
2023/06/05 10:43:21;;;;;;;2.85;1.92;;;;;;;;;;6347416;22;20006;-96
2023/06/05 10:45:51;;;;;;;2.07;1.80;;;;;;;;;;6344048;22;20002;-96
2023/06/05 10:48:18;;;;;;;2.92;2.28;;;;;;;;;;6343776;22;20010;-96
2023/06/05 10:50:44;;;;;;;4.07;2.33;;;;;;;;;;6318573;22;20013;-96
2023/06/05 10:53:29;;;;;;;2.20;1.77;;;;;;;;;;6343446;22;20009;-96
2023/06/05 10:55:57;;;;;;;4.50;2.10;;;;;;;;;;6342060;22;20009;-95
2023/06/05 10:58:24;;;;;;;4.68;1.95;;;;;;;;;;6317109;22;20595;-95
2023/06/05 11:01:22;;;;;;;2.95;1.98;;;;;;;;;;6317728;22;20515;-96
2023/06/05 11:03:58;;;;;;;2.95;1.90;;;;;;;;;;6342666;22;20156;-95
2023/06/05 11:06:27;;;;;;;3.60;2.03;;;;;;;;;;6343527;22;20493;-96
2023/06/05 11:09:10;;;;;;;2.05;1.85;;;;;;;;;;6317864;22;20388;-96
2023/06/05 11:11:55;;;;;;;3.58;2.42;;;;;;;;;;6316328;22;20013;-96
2023/06/05 11:14:21;;;;;;;4.05;2.00;;;;;;;;;;6319128;22;20006;-95
2023/06/05 11:16:48;;;;;;;1.73;1.63;;;;;;;;;;6319969;22;20011;-96
2023/06/05 11:19:21;;;;;;;3.88;1.63;;;;;;;;;;6346728;22;20101;-95
2023/06/05 11:22:07;;;;;;;2.13;1.92;;;;;;;;;;6347796;22;20089;-96
2023/06/05 11:24:34;;;;;;;4.80;2.22;;;;;;;;;;6348468;22;20336;-96
2023/06/05 11:27:01;;;;;;;3.00;2.50;;;;;;;;;;6350184;22;20321;-96
2023/06/05 11:29:48;;;;;;;2.80;2.25;;;;;;;;;;6349981;22;20026;-96
2023/06/05 11:35:00;;;;;;;3.65;2.28;;;;;;;;;;6346917;22;20048;-96
2023/06/05 11:37:26;;;;;;;3.25;1.60;;;;;;;;;;6346088;22;20003;-96
2023/06/05 11:39:52;;;;;;;2.17;1.70;;;;;;;;;;6346809;22;20034;-96
2023/06/05 11:42:27;;;;;;;2.58;2.05;;;;;;;;;;6321093;22;20010;-96
2023/06/05 11:44:53;;;;;;;;;;;;;;;;;;6321025;22;20017;-96
2023/06/05 11:47:28;;;;;;;4.32;1.90;;;;;;;;;;6356080;22;19890;-95
2023/06/05 11:49:55;;;;;;;2.90;2.05;;;;;;;;;;6331050;22;20385;-95
2023/06/05 11:52:22;;;;;;;2.70;1.92;;;;;;;;;;6328354;22;20006;-95
2023/06/05 11:55:05;;;;;;;2.90;2.00;;;;;;;;;;6360656;22;19987;-96
2023/06/05 11:57:44;;;;;;;2.00;1.77;;;;;;;;;;6342159;22;19990;-96
2023/06/05 12:00:12;;;;;;;4.95;1.52;;;;;;;;;;6341259;22;20021;-96
2023/06/05 12:02:42;;;;;;;2.70;1.90;;;;;;;;;;6366736;22;20031;-96
2023/06/05 12:05:10;;;;;;;2.85;1.80;;;;;;;;;;6369609;22;19991;-95
2023/06/05 12:07:39;;;;;;;3.75;1.98;;;;;;;;;;6365427;22;20078;-96
2023/06/05 12:10:06;;;;;;;8.68;2.08;;;;;;;;;;6365027;22;20027;-96
2023/06/05 12:12:33;;;;;;;4.47;2.00;;;;;;;;;;6340303;22;19990;-96
2023/06/05 12:15:22;;;;;;;3.60;1.90;;;;;;;;;;6338813;22;20066;-96
2023/06/05 12:17:55;;;;;;;3.50;2.70;;;;;;;;;;6361992;22;19993;-96
2023/06/05 12:20:22;;;;;;;3.20;1.80;;;;;;;;;;6356711;22;20002;-96
2023/06/05 12:22:48;;;;;;;2.03;1.83;;;;;;;;;;6356219;22;20014;-96
2023/06/05 12:25:30;;;;;;;2.65;1.95;;;;;;;;;;6352481;22;20006;-96
2023/06/05 12:27:56;;;;;;;2.72;2.05;;;;;;;;;;6348873;22;20093;-96
2023/06/05 12:30:25;;;;;;;3.10;1.98;;;;;;;;;;6324863;22;20002;-96
2023/06/05 12:32:54;;;;;;;2.13;1.75;;;;;;;;;;6325706;22;20021;-96
2023/06/05 12:35:27;;;;;;;4.40;1.73;;;;;;;;;;6324548;22;20011;-96
2023/06/05 12:38:14;;;;;;;3.03;1.80;;;;;;;;;;6352003;22;20022;-96
2023/06/05 12:40:42;;;;;;;3.35;2.20;;;;;;;;;;6349800;22;20006;-96
2023/06/05 12:43:24;;;;;;;4.40;1.90;;;;;;;;;;6325642;22;20522;-96
2023/06/05 12:45:51;;;;;;;3.10;2.30;;;;;;;;;;6351671;22;20051;-96
2023/06/05 12:48:23;;;;;;;3.55;2.25;;;;;;;;;;6326598;22;20013;-96
2023/06/05 12:50:49;;;;;;;3.05;2.10;;;;;;;;;;6353473;22;20010;-96
2023/06/05 12:53:25;;;;;;;4.47;2.33;;;;;;;;;;6354240;22;20176;-96
2023/06/05 12:55:51;;;;;;;4.13;2.10;;;;;;;;;;6354146;22;20452;-96
2023/06/05 12:58:21;;;;;;;3.53;2.10;;;;;;;;;;6354527;22;20026;-96
2023/06/05 13:00:48;;;;;;;3.08;2.40;;;;;;;;;;6324557;22;20022;-96
2023/06/05 13:03:14;;;;;;;2.55;2.22;;;;;;;;;;6320268;22;20010;-96
2023/06/05 13:05:43;;;;;;;5.45;2.53;;;;;;;;;;6353842;22;20421;-96
2023/06/05 13:08:09;;;;;;;2.60;2.38;;;;;;;;;;6333119;22;20093;-96
2023/06/05 13:10:36;;;;;;;3.30;2.30;;;;;;;;;;6354254;22;20005;-96
2023/06/05 13:13:09;;;;;;;2.75;2.30;;;;;;;;;;6356426;22;20018;-96
2023/06/05 13:15:35;;;;;;;3.28;2.50;;;;;;;;;;6318581;22;20010;-94
2023/06/05 13:18:01;;;;;;;7.13;2.92;;;;;;;;;;6320052;22;20010;-96
2023/06/05 13:20:27;;;;;;;3.45;2.25;;;;;;;;;;6320336;22;20014;-94
2023/06/05 13:25:39;;;;;;;8.85;2.70;;;;;;;;;;6374257;22;20026;-95
2023/06/05 13:28:06;;;;;;;4.53;2.40;;;;;;;;;;6346398;22;20012;-93
2023/06/05 13:30:53;;;;;;;9.02;2.65;;;;;;;;;;6318631;22;20013;-94
2023/06/05 13:36:41;;;;;;;4.38;2.30;;;;;;;;;;6264475;22;20017;-96
2023/06/05 13:42:09;;;;;;;3.90;2.53;;;;;;;;;;6398663;22;20231;-96
2023/06/05 13:44:36;;;;;;;4.93;2.65;;;;;;;;;;6383553;22;20118;-91
2023/06/05 13:47:03;;;;;;;4.30;2.20;;;;;;;;;;6356039;22;20013;-92
2023/06/05 13:49:31;;;;;;;4.57;2.55;;;;;;;;;;6355388;22;20002;-91
2023/06/05 13:52:08;;;;;;;7.18;2.80;;;;;;;;;;6330331;22;20022;-92
2023/06/05 13:54:47;;;;;;;;;;;;;;;;;;;;;
2023/06/05 13:57:20;;;;;;;3.35;2.67;;;;;;;;;;6358756;22;20034;-94
2023/06/05 13:59:49;;;;;;;3.88;2.55;;;;;;;;;;6323682;22;20070;-93
2023/06/05 14:02:17;;;;;;;4.57;2.63;;;;;;;;;;6352442;22;20335;-92
2023/06/05 14:04:43;;;;;;;8.10;2.70;;;;;;;;;;6326660;22;20006;-92
2023/06/05 14:07:10;;;;;;;6.03;2.30;;;;;;;;;;6350553;22;20003;-91
2023/06/05 14:09:43;;;;;;;4.07;2.42;;;;;;;;;;6322872;22;20006;-93
2023/06/05 14:12:12;;;;;;;4.68;2.78;;;;;;;;;;6348101;22;20010;-92
2023/06/05 14:14:42;;;;;;;4.03;3.00;;;;;;;;;;6323533;22;19986;-92
2023/06/05 14:17:14;;;;;;;4.30;2.88;;;;;;;;;;6323005;22;20007;-92
2023/06/05 14:19:40;;;;;;;5.30;2.70;;;;;;;;;;6323208;22;20071;-92
2023/06/05 14:22:09;;;;;;;3.22;2.72;;;;;;;;;;6324374;22;20012;-92
2023/06/05 14:27:36;;;;;;;3.53;2.58;;;;;;;;;;6355683;22;20188;-94
2023/06/05 14:30:09;;;;;;;4.00;2.80;;;;;;;;;;6325417;22;20010;-94
2023/06/05 14:32:41;;;;;;;7.82;2.78;;;;;;;;;;6350379;22;20473;-92
2023/06/05 14:35:08;;;;;;;6.50;3.45;;;;;;;;;;6351790;22;20325;-90
2023/06/05 14:37:37;;;;;;;3.85;2.70;;;;;;;;;;6325174;22;20074;-90
2023/06/05 14:40:07;;;;;;;5.10;2.72;;;;;;;;;;6325873;22;20034;-90
2023/06/05 14:42:33;;;;;;;5.72;3.35;;;;;;;;;;6322649;22;20010;-90
2023/06/05 14:44:59;;;;;;;6.28;3.28;;;;;;;;;;6324490;22;20057;-92
2023/06/05 14:47:28;;;;;;;9.70;3.22;;;;;;;;;;6321738;22;20026;-93
2023/06/05 14:49:55;;;;;;;4.00;2.85;;;;;;;;;;6324417;22;20014;-95
2023/06/05 14:52:21;;;;;;;3.60;2.60;;;;;;;;;;6322844;22;20063;-92
2023/06/05 14:54:47;;;;;;;5.43;2.72;;;;;;;;;;6324458;22;20075;-91
2023/06/05 14:57:13;;;;;;;6.18;2.60;;;;;;;;;;6347637;22;20006;-92
2023/06/05 14:59:40;;;;;;;7.35;2.97;;;;;;;;;;6322926;22;20017;-92
2023/06/05 15:02:08;;;;;;;5.82;2.53;;;;;;;;;;6348813;22;20002;-92
2023/06/05 15:04:35;;;;;;;3.90;2.80;;;;;;;;;;6349347;22;20017;-92
2023/06/05 15:07:01;;;;;;;5.55;2.75;;;;;;;;;;6323092;22;20014;-91
2023/06/05 15:09:31;;;;;;;4.47;3.30;;;;;;;;;;6347418;22;19982;-93
2023/06/05 15:12:08;;;;;;;5.63;2.80;;;;;;;;;;6349815;22;20024;-92
2023/06/05 15:14:35;;;;;;;4.45;3.30;;;;;;;;;;6376894;22;20428;-92
2023/06/05 15:17:01;;;;;;;5.28;3.17;;;;;;;;;;6347380;22;20386;-92
2023/06/05 15:19:27;;;;;;;7.22;3.50;;;;;;;;;;6324654;22;20010;-94
2023/06/05 15:21:53;;;;;;;7.72;3.17;;;;;;;;;;6323953;22;20614;-93
2023/06/05 15:24:20;;;;;;;5.45;2.67;;;;;;;;;;6323725;22;20062;-93
2023/06/05 15:26:46;;;;;;;3.78;3.20;;;;;;;;;;6323296;22;20362;-92